Time;durP1;ratioP1;P1;durP2;ratioP2;P2;SDS_P1;SDS_P2;PMS_P1;PMS_P2;Temp;Humidity;BMP_temperature;BMP_pressure;BME280_temperature;BME280_humidity;BME280_pressure;Samples;Min_cycle;Max_cycle;Signal;HPM_P1;HPM_P2
2022/12/19 00:00:20;;;;;;;47.27;19.40;;;-4.20;99.60;;;;;;5050515;28;20202;-76
2022/12/19 00:02:50;;;;;;;39.90;17.00;;;-4.40;99.90;;;;;;5050434;28;20198;-76
2022/12/19 00:05:18;;;;;;;40.40;17.53;;;-4.50;99.90;;;;;;5050596;28;20202;-76
2022/12/19 00:07:50;;;;;;;37.57;16.90;;;-4.50;99.90;;;;;;5050460;28;20201;-73
2022/12/19 00:10:18;;;;;;;46.63;19.90;;;-4.50;99.90;;;;;;5050458;28;20205;-75
2022/12/19 00:12:47;;;;;;;43.27;20.37;;;-4.60;99.90;;;;;;5050356;28;20222;-75
2022/12/19 00:15:15;;;;;;;44.60;19.73;;;-4.60;99.90;;;;;;5050485;28;20305;-77
2022/12/19 00:17:44;;;;;;;41.10;17.97;;;-4.70;99.90;;;;;;5050431;28;20198;-77
2022/12/19 00:20:12;;;;;;;43.97;20.00;;;-4.60;99.90;;;;;;5050396;28;20569;-74
2022/12/19 00:22:41;;;;;;;41.90;19.27;;;-4.60;99.90;;;;;;5050371;28;20210;-75
2022/12/19 00:25:11;;;;;;;45.67;19.77;;;-4.60;99.90;;;;;;5050084;28;20209;-72
2022/12/19 00:27:40;;;;;;;42.47;18.50;;;-4.60;99.90;;;;;;5050326;28;20210;-76
2022/12/19 00:30:10;;;;;;;47.73;17.90;;;-4.50;99.90;;;;;;5050082;28;20274;-74
2022/12/19 00:32:38;;;;;;;49.00;18.30;;;-4.60;99.90;;;;;;5050148;28;20572;-73
2022/12/19 00:35:07;;;;;;;35.50;17.93;;;-4.60;99.90;;;;;;5050142;28;20486;-74
2022/12/19 00:37:36;;;;;;;45.33;19.80;;;-4.50;99.90;;;;;;5048945;28;20205;-76
2022/12/19 00:40:05;;;;;;;40.40;17.80;;;-4.40;99.80;;;;;;5048905;28;20205;-74
2022/12/19 00:42:35;;;;;;;47.13;20.03;;;-4.50;99.30;;;;;;5049958;28;20210;-76
2022/12/19 00:45:04;;;;;;;43.23;18.13;;;-4.50;99.30;;;;;;5050048;28;20200;-74
2022/12/19 00:47:33;;;;;;;45.77;19.93;;;-4.60;99.80;;;;;;5048525;28;20270;-77
2022/12/19 00:50:01;;;;;;;46.83;20.00;;;-4.70;99.70;;;;;;5049954;28;20294;-75
2022/12/19 00:52:30;;;;;;;40.37;18.70;;;-4.60;99.70;;;;;;5049666;28;20274;-72
2022/12/19 00:54:58;;;;;;;43.17;18.20;;;-4.60;99.50;;;;;;5049807;28;20236;-74
2022/12/19 00:57:27;;;;;;;43.90;19.77;;;-4.50;99.10;;;;;;5049789;28;20194;-75
2022/12/19 00:59:56;;;;;;;41.17;17.67;;;-4.50;98.10;;;;;;5049790;28;20266;-74
2022/12/19 01:02:27;;;;;;;45.90;20.07;;;-4.50;98.20;;;;;;5048387;28;20205;-76
2022/12/19 01:04:55;;;;;;;39.70;17.70;;;-4.40;97.80;;;;;;5049499;28;20205;-76
2022/12/19 01:07:24;;;;;;;39.63;18.13;;;-4.50;97.50;;;;;;5049909;28;20705;-74
2022/12/19 01:09:52;;;;;;;52.90;20.17;;;-4.50;97.90;;;;;;5048281;28;20562;-74
2022/12/19 01:15:09;;;;;;;42.00;15.97;;;-4.60;98.90;;;;;;5049011;28;20264;-77
2022/12/19 01:17:37;;;;;;;36.97;17.50;;;-4.50;98.00;;;;;;5048070;28;20202;-76
2022/12/19 01:20:12;;;;;;;40.37;19.50;;;-4.60;98.20;;;;;;5049417;28;20250;-73
2022/12/19 01:22:41;;;;;;;41.83;18.17;;;-4.60;98.50;;;;;;5049289;28;20216;-74
2022/12/19 01:25:09;;;;;;;40.90;18.50;;;-4.60;98.40;;;;;;5049268;28;20201;-72
2022/12/19 01:27:39;;;;;;;40.73;19.40;;;-4.60;98.40;;;;;;5047818;28;20201;-72
2022/12/19 01:30:11;;;;;;;37.90;18.67;;;-4.60;98.20;;;;;;5049047;28;20201;-72
2022/12/19 01:32:40;;;;;;;51.33;18.73;;;-4.60;98.40;;;;;;5049054;28;20224;-73
2022/12/19 01:35:09;;;;;;;40.33;19.43;;;-4.60;97.60;;;;;;5049162;28;20594;-73
2022/12/19 01:37:47;;;;;;;43.97;19.30;;;-4.60;97.70;;;;;;5049257;28;20668;-73
2022/12/19 01:40:16;;;;;;;43.33;17.83;;;-4.70;97.90;;;;;;5047873;28;20246;-75
2022/12/19 01:42:45;;;;;;;46.97;19.03;;;-4.60;97.80;;;;;;5049045;28;20199;-76
2022/12/19 01:45:35;;;;;;;42.43;17.70;;;-4.50;97.50;;;;;;5047785;28;20213;-76
2022/12/19 01:48:20;;;;;;;43.37;18.37;;;-4.50;96.60;;;;;;5048503;28;20195;-75
2022/12/19 01:50:56;;;;;;;47.60;18.57;;;-4.50;97.10;;;;;;5047524;28;20198;-75
2022/12/19 01:53:33;;;;;;;39.57;17.90;;;-4.60;97.00;;;;;;5048827;28;20218;-74
2022/12/19 01:56:09;;;;;;;45.57;18.40;;;-4.60;97.10;;;;;;5048752;28;20213;-74
2022/12/19 01:58:45;;;;;;;44.00;18.07;;;-4.70;97.60;;;;;;5046727;28;20557;-76
2022/12/19 02:01:16;;;;;;;43.57;18.20;;;-4.70;97.20;;;;;;5047434;28;20673;-76
2022/12/19 02:03:45;;;;;;;38.27;17.37;;;-4.70;97.60;;;;;;5048619;28;20202;-75
2022/12/19 02:06:14;;;;;;;41.60;18.13;;;-4.60;97.70;;;;;;5048763;28;20201;-74
2022/12/19 02:08:46;;;;;;;47.87;18.33;;;-4.60;97.10;;;;;;5047338;28;20234;-75
2022/12/19 02:11:14;;;;;;;43.17;19.77;;;-4.60;97.70;;;;;;5047412;28;20198;-76
2022/12/19 02:13:44;;;;;;;43.50;19.70;;;-4.70;98.00;;;;;;5047381;28;20278;-75
2022/12/19 02:16:22;;;;;;;43.77;18.73;;;-4.70;98.00;;;;;;5048588;28;20226;-75
2022/12/19 02:18:59;;;;;;;40.87;18.00;;;-4.60;97.30;;;;;;5047238;28;20284;-75
2022/12/19 02:21:39;;;;;;;44.93;18.83;;;-4.60;96.60;;;;;;5047316;28;20253;-76
2022/12/19 02:24:47;;;;;;;45.07;18.50;;;-4.70;97.50;;;;;;5047114;28;20201;-75
2022/12/19 02:27:48;;;;;;;36.77;16.33;;;-4.70;97.60;;;;;;5072558;28;20261;-74
2022/12/19 02:30:18;;;;;;;39.63;18.80;;;-4.70;97.10;;;;;;5072307;28;20239;-73
2022/12/19 02:32:56;;;;;;;45.60;18.90;;;-4.80;97.90;;;;;;5072307;28;20205;-75
2022/12/19 02:35:32;;;;;;;45.97;18.47;;;-4.80;98.10;;;;;;5072179;28;20269;-76
2022/12/19 02:38:14;;;;;;;46.63;20.07;;;-4.70;97.90;;;;;;5072351;28;20207;-74
2022/12/19 02:40:48;;;;;;;40.20;17.73;;;-4.70;97.40;;;;;;5072414;28;20775;-74
2022/12/19 02:43:21;;;;;;;43.03;18.73;;;-4.60;97.10;;;;;;5072121;28;20214;-76
2022/12/19 02:45:52;;;;;;;41.27;17.20;;;-4.50;96.50;;;;;;5072504;28;20212;-75
2022/12/19 02:48:23;;;;;;;37.70;17.73;;;-4.40;95.00;;;;;;5089121;28;20228;-76
2022/12/19 02:50:51;;;;;;;47.93;18.67;;;-4.40;94.80;;;;;;5072273;28;20319;-75
2022/12/19 02:53:20;;;;;;;49.10;19.07;;;-4.30;93.90;;;;;;5072325;28;20216;-76
2022/12/19 02:56:09;;;;;;;39.40;18.83;;;-4.30;94.00;;;;;;5072182;28;20247;-75
2022/12/19 02:58:52;;;;;;;44.53;18.07;;;-4.30;94.00;;;;;;5071978;28;20218;-75
2022/12/19 03:01:36;;;;;;;38.07;18.37;;;-4.30;93.80;;;;;;5074747;28;20196;-74
2022/12/19 03:04:17;;;;;;;38.23;17.43;;;-4.20;93.40;;;;;;5059709;28;20267;-74
2022/12/19 03:06:51;;;;;;;39.77;17.47;;;-4.20;92.30;;;;;;5050155;28;20197;-75
2022/12/19 03:09:28;;;;;;;45.70;19.03;;;-4.20;92.40;;;;;;5051386;28;20198;-74
2022/12/19 03:12:03;;;;;;;46.33;20.13;;;-4.30;91.80;;;;;;5051368;28;20250;-75
2022/12/19 03:14:32;;;;;;;49.47;21.17;;;-4.40;91.50;;;;;;5049775;28;20720;-75
2022/12/19 03:17:04;;;;;;;46.00;19.80;;;-4.40;91.70;;;;;;5051138;28;20649;-75
2022/12/19 03:19:36;;;;;;;43.67;18.20;;;-4.40;92.40;;;;;;5049802;28;20209;-75
2022/12/19 03:22:04;;;;;;;42.30;19.77;;;-4.40;92.30;;;;;;5051183;28;20206;-76
2022/12/19 03:24:33;;;;;;;45.00;18.50;;;-4.30;92.10;;;;;;5049914;28;20201;-74
2022/12/19 03:27:05;;;;;;;43.67;18.90;;;-4.30;91.60;;;;;;5051180;28;20213;-74
2022/12/19 03:29:37;;;;;;;48.83;21.03;;;-4.40;90.80;;;;;;5051019;28;20225;-77
2022/12/19 03:32:10;;;;;;;42.80;20.27;;;-4.40;90.80;;;;;;5050803;28;20203;-75
2022/12/19 03:34:44;;;;;;;43.20;20.63;;;-4.50;91.80;;;;;;5032552;28;20295;-73
2022/12/19 03:37:16;;;;;;;49.37;22.20;;;-4.50;91.90;;;;;;5051023;28;20710;-75
2022/12/19 03:39:48;;;;;;;43.87;21.70;;;-4.50;91.50;;;;;;5051080;28;20193;-74
2022/12/19 03:45:08;;;;;;;50.10;23.07;;;-4.50;90.30;;;;;;5051014;28;20204;-76
2022/12/19 03:47:41;;;;;;;53.80;25.70;;;-4.60;90.10;;;;;;5051114;28;20574;-73
2022/12/19 03:50:11;;;;;;;60.77;26.07;;;-4.70;91.30;;;;;;5050911;28;20636;-76
2022/12/19 03:52:47;;;;;;;60.90;25.20;;;-4.70;91.70;;;;;;5050854;28;20195;-74
2022/12/19 03:55:21;;;;;;;51.67;24.27;;;-4.70;91.10;;;;;;5050983;28;20962;-76
2022/12/19 03:57:56;;;;;;;55.47;25.30;;;-4.70;90.80;;;;;;5050791;28;20316;-75
2022/12/19 04:00:25;;;;;;;58.23;26.00;;;-4.70;90.40;;;;;;5050777;28;20198;-76
2022/12/19 04:02:57;;;;;;;59.10;27.27;;;-4.90;90.50;;;;;;5050515;28;20707;-75
2022/12/19 04:05:29;;;;;;;58.67;26.40;;;-5.00;91.70;;;;;;5050573;28;20194;-76
2022/12/19 04:08:01;;;;;;;63.77;26.63;;;-4.90;91.70;;;;;;5050417;28;20202;-76
2022/12/19 04:10:30;;;;;;;64.07;26.23;;;-5.00;91.60;;;;;;5050565;28;20201;-75
2022/12/19 04:13:02;;;;;;;56.47;25.13;;;-5.00;91.30;;;;;;5048763;28;20234;-74
2022/12/19 04:15:39;;;;;;;59.80;26.13;;;-5.10;91.10;;;;;;5050418;28;20416;-78
2022/12/19 04:18:09;;;;;;;56.83;25.00;;;-5.20;92.10;;;;;;5050090;28;20639;-75
2022/12/19 04:20:42;;;;;;;55.30;25.17;;;-5.20;92.40;;;;;;5050288;28;20288;-77
2022/12/19 04:23:17;;;;;;;61.70;24.40;;;-5.30;92.60;;;;;;5050128;28;20228;-76
2022/12/19 04:25:49;;;;;;;54.50;24.17;;;-5.20;92.50;;;;;;5050384;28;20281;-75
2022/12/19 04:28:22;;;;;;;59.37;23.87;;;-5.30;93.00;;;;;;5050219;28;20224;-77
2022/12/19 04:30:52;;;;;;;52.67;23.53;;;-5.30;92.90;;;;;;5050112;28;20203;-76
2022/12/19 04:33:20;;;;;;;58.53;24.83;;;-5.30;92.90;;;;;;5048029;28;20648;-76
2022/12/19 04:35:50;;;;;;;57.73;24.47;;;-5.30;93.30;;;;;;5050242;28;20236;-76
2022/12/19 04:38:19;;;;;;;60.97;23.67;;;-5.30;93.60;;;;;;5049921;28;20256;-75
2022/12/19 04:40:47;;;;;;;53.47;25.27;;;-5.30;92.40;;;;;;5050173;28;20202;-73
2022/12/19 04:43:16;;;;;;;68.67;27.87;;;-5.20;92.30;;;;;;5049993;28;20540;-76
2022/12/19 04:45:44;;;;;;;58.13;25.60;;;-5.30;92.10;;;;;;5050030;28;20217;-77
2022/12/19 04:48:13;;;;;;;64.73;24.87;;;-5.30;92.00;;;;;;5049900;28;20193;-76
2022/12/19 04:50:41;;;;;;;64.83;25.57;;;-5.40;92.90;;;;;;5049941;28;20686;-76
2022/12/19 04:53:11;;;;;;;58.83;25.00;;;-5.40;92.20;;;;;;5049844;28;20196;-75
2022/12/19 04:55:40;;;;;;;64.40;26.63;;;-5.40;92.20;;;;;;5049738;28;20668;-77
2022/12/19 04:58:08;;;;;;;67.83;27.40;;;-5.50;92.40;;;;;;5049671;28;20218;-76
2022/12/19 05:00:37;;;;;;;63.00;26.33;;;-5.50;93.20;;;;;;5049651;28;20201;-76
2022/12/19 05:03:05;;;;;;;74.27;28.87;;;-5.60;94.00;;;;;;5049679;28;20281;-78
2022/12/19 05:05:34;;;;;;;63.90;27.73;;;-5.50;94.10;;;;;;5049639;28;20197;-75
2022/12/19 05:08:02;;;;;;;66.23;27.27;;;-5.40;93.50;;;;;;5049740;28;20210;-73
2022/12/19 05:10:32;;;;;;;61.97;28.00;;;-5.30;93.70;;;;;;5049686;28;20198;-76
2022/12/19 05:13:01;;;;;;;60.47;29.47;;;-5.30;92.80;;;;;;5049304;28;20282;-77
2022/12/19 05:15:29;;;;;;;62.40;26.57;;;-5.30;92.00;;;;;;5049681;28;20194;-74
2022/12/19 05:17:58;;;;;;;72.90;29.27;;;-5.20;92.10;;;;;;5049342;28;20229;-77
2022/12/19 05:20:26;;;;;;;81.63;30.27;;;-5.20;91.80;;;;;;5049470;28;20198;-75
2022/12/19 05:22:55;;;;;;;80.80;30.90;;;-5.20;92.00;;;;;;5049175;28;20190;-77
2022/12/19 05:25:23;;;;;;;81.03;33.40;;;-5.30;91.20;;;;;;5049190;28;20227;-73
2022/12/19 05:27:54;;;;;;;83.63;32.73;;;-5.30;91.10;;;;;;5049521;28;20506;-77
2022/12/19 05:30:23;;;;;;;96.33;34.93;;;-5.30;91.30;;;;;;5049058;28;20289;-73
2022/12/19 05:32:52;;;;;;;88.10;35.47;;;-5.30;91.60;;;;;;5049116;28;20193;-77
2022/12/19 05:35:21;;;;;;;86.20;35.93;;;-5.30;91.20;;;;;;5049136;28;20269;-76
2022/12/19 05:37:49;;;;;;;75.33;31.13;;;-5.30;91.20;;;;;;5049028;28;20725;-77
2022/12/19 05:40:18;;;;;;;79.33;29.63;;;-5.30;92.30;;;;;;5049296;28;20220;-74
2022/12/19 05:42:47;;;;;;;80.40;34.03;;;-5.30;93.40;;;;;;5049041;28;20193;-77
2022/12/19 05:45:17;;;;;;;68.77;29.10;;;-5.20;93.00;;;;;;5049034;28;20193;-77
2022/12/19 05:47:46;;;;;;;60.20;25.23;;;-5.10;94.20;;;;;;5049110;28;20296;-75
2022/12/19 05:50:15;;;;;;;37.17;15.77;;;-5.10;94.00;;;;;;5048883;28;20194;-77
2022/12/19 05:52:51;;;;;;;25.87;13.43;;;-5.00;98.50;;;;;;5048907;28;20227;-77
2022/12/19 05:55:19;;;;;;;33.27;14.83;;;-4.70;98.80;;;;;;5048941;28;20659;-76
2022/12/19 05:57:48;;;;;;;32.17;15.80;;;-4.50;98.20;;;;;;5049021;28;20214;-78
2022/12/19 06:00:18;;;;;;;37.13;17.47;;;-4.30;97.20;;;;;;5049073;28;20228;-77
2022/12/19 06:02:47;;;;;;;33.17;14.20;;;-4.20;95.70;;;;;;5048742;28;20667;-77
2022/12/19 06:05:15;;;;;;;27.80;13.83;;;-4.10;96.00;;;;;;5048698;28;20205;-76
2022/12/19 06:07:45;;;;;;;37.00;15.20;;;-4.10;95.30;;;;;;5048671;28;20894;-77
2022/12/19 06:10:13;;;;;;;30.67;15.47;;;-4.00;94.60;;;;;;5048908;28;20206;-76
2022/12/19 06:12:42;;;;;;;30.27;14.37;;;-3.90;94.10;;;;;;5048555;28;20276;-73
2022/12/19 06:15:11;;;;;;;25.10;13.57;;;-3.90;94.30;;;;;;5048457;28;20226;-76
2022/12/19 06:17:41;;;;;;;19.67;11.87;;;-3.90;93.70;;;;;;5048684;28;20289;-78
2022/12/19 06:20:10;;;;;;;26.20;13.57;;;-3.80;93.40;;;;;;5048517;28;20675;-77
2022/12/19 06:22:39;;;;;;;29.17;14.63;;;-3.80;93.40;;;;;;5048623;28;20667;-74
2022/12/19 06:25:08;;;;;;;28.73;13.80;;;-3.80;93.00;;;;;;5048464;28;20208;-75
2022/12/19 06:27:37;;;;;;;32.93;13.23;;;-3.80;93.10;;;;;;5047360;28;20547;-76
2022/12/19 06:30:07;;;;;;;28.20;15.27;;;-3.70;92.30;;;;;;5048551;28;20195;-76
2022/12/19 06:32:35;;;;;;;26.73;14.73;;;-3.70;92.10;;;;;;5048411;28;20195;-76
2022/12/19 06:35:08;;;;;;;27.87;14.30;;;-3.70;92.20;;;;;;5048822;28;20202;-77
2022/12/19 06:37:36;;;;;;;34.43;15.87;;;-3.60;91.40;;;;;;5051845;28;20297;-77
2022/12/19 06:42:21;;;;;;;29.33;14.20;;;-3.60;91.50;;;;;;5051843;28;20190;-78
2022/12/19 06:42:55;;;;;;;27.87;14.53;;;-3.50;91.10;;;;;;5051737;28;20195;-76
2022/12/19 06:45:24;;;;;;;30.33;13.90;;;-3.60;91.00;;;;;;5051739;28;20206;-76
2022/12/19 06:47:52;;;;;;;32.63;15.47;;;-3.60;91.50;;;;;;5051903;28;20245;-76
2022/12/19 06:50:22;;;;;;;32.00;14.87;;;-3.70;91.60;;;;;;5051687;28;20822;-76
2022/12/19 06:52:51;;;;;;;31.30;15.77;;;-3.70;92.10;;;;;;5052184;28;20210;-77
2022/12/19 06:55:19;;;;;;;33.13;14.03;;;-3.60;91.60;;;;;;5051661;28;20200;-76
2022/12/19 06:57:48;;;;;;;35.33;16.47;;;-3.60;91.60;;;;;;5049838;28;20327;-76
2022/12/19 07:00:17;;;;;;;37.53;16.87;;;-3.60;91.60;;;;;;5051670;28;20538;-75
2022/12/19 07:02:50;;;;;;;39.90;16.47;;;-3.50;91.20;;;;;;5051512;28;20198;-75
2022/12/19 07:05:19;;;;;;;30.27;16.37;;;-3.50;90.60;;;;;;5051477;28;20607;-75
2022/12/19 07:07:49;;;;;;;34.07;16.33;;;-3.40;90.10;;;;;;5051426;28;20732;-75
2022/12/19 07:10:18;;;;;;;29.43;15.83;;;-3.40;90.20;;;;;;5051558;28;20198;-75
2022/12/19 07:12:46;;;;;;;35.43;17.40;;;-3.40;90.20;;;;;;5051554;28;20226;-75
2022/12/19 07:15:15;;;;;;;24.03;11.83;;;-3.30;89.10;;;;;;5051386;28;20191;-74
2022/12/19 07:17:44;;;;;;;31.80;16.00;;;-3.30;88.00;;;;;;5050122;28;20750;-75
2022/12/19 07:20:13;;;;;;;33.70;15.87;;;-3.30;89.30;;;;;;5049986;28;20579;-74
2022/12/19 07:22:43;;;;;;;36.77;15.83;;;-3.20;88.00;;;;;;5049901;28;20202;-74
2022/12/19 07:25:20;;;;;;;36.27;17.47;;;-3.20;87.20;;;;;;5049006;28;20611;-75
2022/12/19 07:27:49;;;;;;;31.60;16.43;;;-3.20;87.30;;;;;;5051277;28;20216;-74
2022/12/19 07:30:18;;;;;;;36.67;16.83;;;-3.20;87.40;;;;;;5051099;28;20204;-73
2022/12/19 07:32:46;;;;;;;32.80;15.73;;;-3.10;87.30;;;;;;5051200;28;20278;-75
2022/12/19 07:35:15;;;;;;;37.37;17.43;;;-3.10;87.30;;;;;;5050822;28;20235;-75
2022/12/19 07:37:43;;;;;;;33.67;16.43;;;-3.10;86.80;;;;;;5050967;28;20229;-75
2022/12/19 07:40:12;;;;;;;37.63;17.53;;;-3.10;86.30;;;;;;5051065;28;20212;-74
2022/12/19 07:42:42;;;;;;;34.07;16.80;;;-3.00;86.80;;;;;;5049609;27;20221;-76
2022/12/19 07:45:12;;;;;;;34.73;17.77;;;-3.00;85.30;;;;;;5050952;27;20637;-75
2022/12/19 07:47:40;;;;;;;31.13;15.57;;;-3.00;85.30;;;;;;5050316;28;20695;-75
2022/12/19 07:50:09;;;;;;;36.37;18.43;;;-3.00;85.20;;;;;;5050658;28;20197;-74
2022/12/19 07:52:38;;;;;;;33.77;16.83;;;-3.00;85.90;;;;;;5050629;28;20560;-73
2022/12/19 07:55:07;;;;;;;35.80;16.50;;;-2.90;86.10;;;;;;5050758;28;20196;-74
2022/12/19 07:57:35;;;;;;;33.13;15.87;;;-2.90;85.50;;;;;;5050605;28;20659;-74
2022/12/19 08:00:07;;;;;;;29.43;14.60;;;-2.80;84.90;;;;;;5050496;28;20225;-74
2022/12/19 08:02:39;;;;;;;63.17;29.73;;;-2.80;84.00;;;;;;5050457;28;20232;-74
2022/12/19 08:05:10;;;;;;;43.70;20.13;;;-2.70;92.30;;;;;;5049170;28;20594;-75
2022/12/19 08:07:39;;;;;;;29.40;15.60;;;-2.70;85.90;;;;;;5050339;28;20578;-74
2022/12/19 08:10:10;;;;;;;25.20;12.87;;;-2.60;85.70;;;;;;5050517;28;20668;-75
2022/12/19 08:12:38;;;;;;;40.43;19.53;;;-2.70;83.90;;;;;;5048999;28;20293;-75
2022/12/19 08:15:10;;;;;;;39.60;17.57;;;-2.70;86.30;;;;;;5048625;28;20233;-75
2022/12/19 08:17:39;;;;;;;39.73;16.60;;;-2.70;87.50;;;;;;5050224;28;20219;-75
2022/12/19 08:20:10;;;;;;;31.23;15.90;;;-2.60;85.40;;;;;;5050189;28;20649;-75
2022/12/19 08:22:38;;;;;;;30.73;14.00;;;-2.70;84.50;;;;;;5050251;28;20216;-74
2022/12/19 08:25:08;;;;;;;32.03;15.77;;;-2.70;83.80;;;;;;5050156;28;20211;-76
2022/12/19 08:27:36;;;;;;;28.80;13.90;;;-2.70;85.30;;;;;;5042248;27;20190;-75
2022/12/19 08:30:06;;;;;;;35.53;16.67;;;-2.80;84.00;;;;;;5039322;28;20202;-74
2022/12/19 08:32:36;;;;;;;30.13;13.63;;;-2.70;85.10;;;;;;5030649;28;20203;-77
2022/12/19 08:35:06;;;;;;;34.80;17.63;;;-2.80;84.50;;;;;;5030694;28;20245;-76
2022/12/19 08:37:34;;;;;;;49.00;20.43;;;-2.70;85.20;;;;;;5030681;28;20209;-74
2022/12/19 08:40:03;;;;;;;32.83;16.80;;;-2.70;84.60;;;;;;5030594;28;20240;-75
2022/12/19 08:42:32;;;;;;;31.03;13.37;;;-2.60;84.40;;;;;;5029917;28;20194;-75
2022/12/19 08:45:00;;;;;;;36.33;19.23;;;-2.60;83.60;;;;;;5029347;28;20214;-75
2022/12/19 08:47:29;;;;;;;34.50;15.10;;;-2.60;84.20;;;;;;5029156;28;20675;-74
2022/12/19 08:49:59;;;;;;;32.33;17.67;;;-2.60;83.40;;;;;;5029091;28;20202;-74
2022/12/19 08:52:27;;;;;;;38.80;18.40;;;-2.60;83.90;;;;;;5030581;28;20583;-74
2022/12/19 08:54:56;;;;;;;30.43;14.83;;;-2.50;83.70;;;;;;5030419;28;20645;-75
2022/12/19 08:57:25;;;;;;;33.13;15.60;;;-2.60;82.60;;;;;;5036164;27;20280;-74
2022/12/19 08:59:53;;;;;;;32.13;16.83;;;-2.60;82.70;;;;;;5049794;28;20582;-75
2022/12/19 09:02:23;;;;;;;29.23;16.27;;;-2.60;82.80;;;;;;5049921;28;20623;-76
2022/12/19 09:04:51;;;;;;;29.13;12.97;;;-2.50;82.70;;;;;;5049975;28;20192;-76
2022/12/19 09:07:41;;;;;;;35.63;15.53;;;-2.40;81.40;;;;;;5050184;28;20198;-76
2022/12/19 09:10:10;;;;;;;22.70;12.60;;;-2.30;82.10;;;;;;5049855;28;20564;-74
2022/12/19 09:12:38;;;;;;;32.00;15.47;;;-2.30;80.30;;;;;;5048042;28;20211;-74
2022/12/19 09:15:07;;;;;;;35.03;15.53;;;-2.20;80.80;;;;;;5049832;28;20225;-76
2022/12/19 09:17:36;;;;;;;24.80;14.53;;;-2.20;79.60;;;;;;5050659;28;20200;-76
2022/12/19 09:20:06;;;;;;;26.37;12.90;;;-2.10;79.90;;;;;;5049887;28;20222;-79
2022/12/19 09:22:34;;;;;;;33.17;15.47;;;-2.10;78.90;;;;;;5049114;28;20197;-75
2022/12/19 09:25:05;;;;;;;28.97;14.17;;;-2.10;80.00;;;;;;5049220;28;20224;-75
2022/12/19 09:27:33;;;;;;;29.00;14.47;;;-2.00;79.30;;;;;;5048930;27;20198;-73
2022/12/19 09:30:21;;;;;;;25.80;14.47;;;-2.10;78.50;;;;;;5041781;28;20655;-75
2022/12/19 09:32:49;;;;;;;28.13;14.33;;;-2.10;79.10;;;;;;5036039;28;20198;-74
2022/12/19 09:35:18;;;;;;;33.07;14.80;;;-2.00;79.00;;;;;;5029715;28;20661;-73
2022/12/19 09:37:46;;;;;;;34.83;16.20;;;-2.00;78.90;;;;;;5029852;28;20195;-75
2022/12/19 09:40:17;;;;;;;26.20;14.47;;;-2.00;78.60;;;;;;5029667;28;20321;-74
2022/12/19 09:43:00;;;;;;;33.43;14.53;;;-2.00;78.80;;;;;;5029429;28;20200;-75
2022/12/19 09:45:48;;;;;;;23.67;14.00;;;-2.00;78.90;;;;;;5029107;28;20198;-75
2022/12/19 09:48:19;;;;;;;31.33;15.50;;;-1.90;78.70;;;;;;5029786;28;20225;-74
2022/12/19 09:50:56;;;;;;;30.23;16.00;;;-2.00;78.10;;;;;;5029457;28;20199;-72
2022/12/19 09:53:43;;;;;;;29.90;14.70;;;-2.00;78.40;;;;;;5029238;28;20239;-74
2022/12/19 09:56:15;;;;;;;24.67;13.70;;;-1.90;79.30;;;;;;5029252;28;20557;-73
2022/12/19 09:58:49;;;;;;;31.43;16.20;;;-1.70;78.60;;;;;;5029634;28;20202;-75
2022/12/19 10:01:22;;;;;;;27.03;14.40;;;-1.60;77.50;;;;;;5029076;28;20264;-72
2022/12/19 10:03:57;;;;;;;31.57;15.83;;;-1.50;76.80;;;;;;5028972;28;20186;-74
2022/12/19 10:06:26;;;;;;;31.50;14.53;;;-1.50;75.60;;;;;;5028783;28;20212;-75
2022/12/19 10:09:18;;;;;;;29.20;14.60;;;-1.60;75.40;;;;;;5028850;28;20562;-75
2022/12/19 10:12:08;;;;;;;29.77;15.33;;;-1.60;75.80;;;;;;5029203;28;20205;-74
2022/12/19 10:15:03;;;;;;;41.33;19.23;;;-1.60;76.30;;;;;;5028708;28;20237;-73
2022/12/19 10:17:48;;;;;;;32.80;16.80;;;-1.50;77.20;;;;;;5029085;28;20288;-76
2022/12/19 10:20:25;;;;;;;30.67;15.30;;;-1.30;76.10;;;;;;5028782;28;20724;-74
2022/12/19 10:23:04;;;;;;;30.87;16.20;;;-1.30;74.90;;;;;;5028593;28;20254;-76
2022/12/19 10:25:51;;;;;;;32.47;16.70;;;-1.40;74.80;;;;;;5029088;28;20204;-75
2022/12/19 10:28:42;;;;;;;30.20;15.13;;;-1.30;75.50;;;;;;5028581;27;20202;-75
2022/12/19 10:31:17;;;;;;;28.53;15.13;;;-1.20;75.20;;;;;;5028539;28;20194;-75
2022/12/19 10:33:55;;;;;;;32.37;15.20;;;-1.20;74.60;;;;;;5028376;28;20206;-75
2022/12/19 10:36:24;;;;;;;22.10;11.93;;;-1.20;74.30;;;;;;5028069;28;20197;-74
2022/12/19 10:39:24;;;;;;;23.73;12.80;;;-1.30;74.50;;;;;;5028252;28;20197;-73
2022/12/19 10:41:57;;;;;;;29.20;14.87;;;-1.50;74.30;;;;;;5028211;28;20198;-74
2022/12/19 10:44:30;;;;;;;30.03;16.77;;;-1.50;76.00;;;;;;5028575;28;20221;-75
2022/12/19 10:46:58;;;;;;;32.07;15.17;;;-1.40;76.20;;;;;;5028323;28;20195;-76
2022/12/19 10:49:28;;;;;;;30.47;16.43;;;-1.30;75.40;;;;;;5028154;28;20198;-75
2022/12/19 10:52:01;;;;;;;30.20;17.10;;;-1.30;75.10;;;;;;5028311;28;20672;-74
2022/12/19 10:54:41;;;;;;;37.40;18.40;;;-1.40;76.10;;;;;;5028151;28;20205;-75
2022/12/19 10:57:25;;;;;;;33.37;16.13;;;-1.50;76.90;;;;;;5028325;28;20743;-75
2022/12/19 10:59:57;;;;;;;25.47;14.47;;;-1.30;76.60;;;;;;5027794;28;20213;-73
2022/12/19 11:02:41;;;;;;;27.03;14.90;;;-1.30;76.60;;;;;;5028266;28;20207;-76
2022/12/19 11:05:23;;;;;;;29.53;14.97;;;-1.20;76.50;;;;;;5028108;28;20191;-75
2022/12/19 11:08:16;;;;;;;31.40;15.50;;;-1.10;76.00;;;;;;5028027;28;20272;-76
2022/12/19 11:10:46;;;;;;;29.70;15.57;;;-1.00;75.20;;;;;;5027992;28;20218;-75
2022/12/19 11:13:42;;;;;;;30.30;16.53;;;-1.00;75.20;;;;;;5027774;28;20261;-74
2022/12/19 11:16:37;;;;;;;31.90;16.70;;;-1.00;76.00;;;;;;5028374;28;20202;-76
2022/12/19 11:19:31;;;;;;;33.73;17.30;;;-1.00;75.90;;;;;;5028051;28;20198;-74
2022/12/19 11:22:23;;;;;;;38.50;16.83;;;-1.00;76.20;;;;;;5030123;28;20191;-74
2022/12/19 11:25:18;;;;;;;33.23;17.37;;;-0.80;74.80;;;;;;5031389;28;20193;-73
2022/12/19 11:28:20;;;;;;;32.77;16.50;;;-0.70;73.80;;;;;;5031227;28;20230;-76
2022/12/19 11:31:11;;;;;;;27.53;15.17;;;-0.70;74.60;;;;;;5031412;28;20281;-75
2022/12/19 11:34:06;;;;;;;33.20;17.00;;;-0.70;73.60;;;;;;5030959;28;20195;-76
2022/12/19 11:36:41;;;;;;;30.63;16.57;;;-0.70;73.70;;;;;;5031101;28;20218;-76
2022/12/19 11:39:18;;;;;;;28.17;15.50;;;-0.70;74.80;;;;;;5031031;28;20680;-73
2022/12/19 11:41:51;;;;;;;30.37;14.83;;;-0.60;73.90;;;;;;5030826;28;20249;-76
2022/12/19 11:44:29;;;;;;;31.20;16.17;;;-0.70;73.90;;;;;;5031046;28;20256;-74
2022/12/19 11:47:04;;;;;;;31.37;16.93;;;-0.70;74.80;;;;;;5031301;28;20558;-73
2022/12/19 11:49:39;;;;;;;31.20;17.80;;;-0.60;74.90;;;;;;5030832;28;20193;-73
2022/12/19 11:52:18;;;;;;;34.67;17.70;;;-0.60;74.80;;;;;;5030778;28;20276;-75
2022/12/19 11:55:17;;;;;;;27.20;15.37;;;-0.50;74.60;;;;;;5030880;28;20225;-73
2022/12/19 11:57:46;;;;;;;31.27;16.00;;;-0.60;74.40;;;;;;5030648;28;20255;-76
2022/12/19 12:00:20;;;;;;;28.10;16.37;;;-0.80;75.90;;;;;;5030594;28;20207;-74
2022/12/19 12:03:15;;;;;;;43.80;20.77;;;-0.70;75.80;;;;;;5031092;28;20225;-78
2022/12/19 12:05:46;;;;;;;33.17;17.10;;;-0.50;77.20;;;;;;5030674;28;20311;-78
2022/12/19 12:08:33;;;;;;;29.67;16.63;;;-0.50;75.30;;;;;;5030694;28;20645;-75
2022/12/19 12:11:30;;;;;;;31.70;14.97;;;-0.40;75.50;;;;;;5046716;27;20570;-74
2022/12/19 12:14:23;;;;;;;30.50;15.77;;;-0.50;75.40;;;;;;5050451;27;20226;-75
2022/12/19 12:17:26;;;;;;;31.70;15.87;;;-0.60;76.20;;;;;;5050671;28;20197;-73
2022/12/19 12:20:23;;;;;;;32.37;16.17;;;-0.70;77.50;;;;;;5050123;28;20193;-75
2022/12/19 12:23:25;;;;;;;27.00;15.60;;;-0.50;77.50;;;;;;5050285;28;20217;-74
2022/12/19 12:26:23;;;;;;;29.07;15.87;;;-0.40;77.50;;;;;;5049974;28;20189;-72
2022/12/19 12:29:18;;;;;;;32.07;15.93;;;-0.20;76.00;;;;;;5050354;28;20198;-73
2022/12/19 12:32:21;;;;;;;29.60;15.57;;;-0.10;75.20;;;;;;5050152;28;20401;-75
2022/12/19 12:35:23;;;;;;;30.00;16.70;;;-0.10;75.80;;;;;;5050016;28;20190;-75
2022/12/19 12:38:41;;;;;;;31.57;14.53;;;-0.20;75.70;;;;;;5154726;27;20652;-74
2022/12/19 12:42:02;;;;;;;19.23;11.17;;;-0.20;76.10;;;;;;5154783;27;20684;-78
2022/12/19 12:44:11;;;;;;;28.37;16.07;;;-0.30;77.50;;;;;;5154846;27;20521;-75
2022/12/19 12:46:45;;;;;;;34.70;18.53;;;-0.30;79.20;;;;;;5154495;27;20736;-78
2022/12/19 12:49:35;;;;;;;29.37;16.90;;;-0.30;79.50;;;;;;5154744;27;20210;-74
2022/12/19 12:52:08;;;;;;;27.10;14.97;;;-0.30;79.30;;;;;;5154590;27;20282;-75
2022/12/19 12:54:41;;;;;;;31.13;16.20;;;-0.30;79.50;;;;;;5154420;27;20408;-75
2022/12/19 12:57:18;;;;;;;29.77;17.00;;;-0.30;80.20;;;;;;5154268;27;20194;-75
2022/12/19 12:59:47;;;;;;;33.23;17.17;;;-0.30;80.70;;;;;;5153637;27;20238;-74
2022/12/19 13:02:21;;;;;;;34.97;17.07;;;-0.30;80.20;;;;;;5155268;27;20222;-76
2022/12/19 13:04:58;;;;;;;30.27;16.23;;;-0.30;80.60;;;;;;5154617;27;20617;-77
2022/12/19 13:07:32;;;;;;;33.20;15.97;;;-0.30;81.30;;;;;;5154908;27;20232;-77